Data for 11/04/2018

Time Sea-Level Adjusted Pressure Absolute Pressure Temperature Relative Humidity Dew Point   
(mb) (inHg) (mb) (inHg) (C) (F) (%) (C) (F)
00:05 1017 30.03 846 24.98 4.9 40.8 56 -3.2 26.3
00:10 1017 30.03 846 24.98 5 41.1 55 -3.4 26
00:15 1017 30.03 846 24.98 5.1 41.2 54 -3.3 26
00:20 1017 30.03 846 24.98 5.2 41.3 55 -3.2 26.2
00:25 1017 30.03 846 24.98 5.2 41.3 55 -3.2 26.3
00:30 1017 30.03 846 24.98 5.2 41.4 54 -3.3 26.1
00:35 1017 30.03 846 24.98 5.2 41.4 54 -3.3 26.1
00:40 1017 30.03 846 24.98 5.2 41.4 53 -3.5 25.7
00:45 1017 30.03 846 24.98 5.4 41.7 53 -3.4 25.8
00:50 1017 30.03 846 24.98 5.5 41.8 52 -3.6 25.6
00:55 1017 30.03 846 24.98 5.5 41.9 52 -3.4 25.8
02:00 1016 30 846 24.98 5.5 41.9 53 -3.3 26
02:05 1016 30 846 24.98 5.5 42 53 -3.4 25.9
02:10 1016 30 846 24.98 5.5 42 53 -3.2 26.2
02:15 1017 30.03 846 24.98 5.5 42 54 -3.1 26.4
02:20 1016 30 846 24.98 5.5 41.9 54 -3.2 26.3
02:25 1016 30 846 24.98 5.6 42.1 54 -2.9 26.7
02:30 1016 30 846 24.98 5.7 42.2 53 -3.2 26.3
02:35 1016 30 845 24.95 5.7 42.3 54 -3 26.6
02:40 1016 30 845 24.95 5.7 42.2 53 -3 26.6
02:45 1016 30 845 24.95 5.5 42 54 -2.9 26.7
02:50 1016 30 845 24.95 5.4 41.7 55 -2.8 26.9
02:55 1016 30 845 24.95 5.3 41.5 58 -2.4 27.7
03:00 1016 30 845 24.95 5.2 41.3 58 -2.4 27.6
03:05 1016 30 845 24.95 5.1 41.1 59 -2.2 28
03:10 1016 30 845 24.95 5.1 41.1 58 -2.4 27.7
03:15 1016 30 845 24.95 4.9 40.9 60 -2.1 28.2
03:20 1015 29.97 845 24.95 4.7 40.4 64 -1.5 29.2
03:25 1015 29.97 844 24.92 4.4 39.9 67 -1.2 29.9
03:30 1015 29.97 844 24.92 4.2 39.5 69 -1 30.2
03:35 1015 29.97 844 24.92 4 39.2 69 -1.2 29.8
03:40 1015 29.97 844 24.92 4 39.1 69 -1.2 29.9
03:45 1014 29.94 844 24.92 3.9 39 70 -1.1 30
03:50 1014 29.94 843 24.89 3.9 38.9 70 -1.1 29.9
03:55 1014 29.94 843 24.89 3.8 38.9 71 -0.9 30.3
04:00 1014 29.94 843 24.89 3.7 38.7 73 -0.7 30.7
04:05 1014 29.94 843 24.89 3.6 38.4 73 -0.9 30.5
04:10 1014 29.94 843 24.89 3.5 38.3 74 -0.7 30.7
04:15 1013 29.91 843 24.89 3.4 38.1 75 -0.7 30.8
04:20 1013 29.91 842 24.86 3.3 37.9 76 -0.5 31
04:25 1013 29.91 842 24.86 3.2 37.7 75 -0.8 30.6
04:30 1013 29.91 842 24.86 3.2 37.8 75 -0.8 30.5
04:35 1013 29.91 842 24.86 3.2 37.7 75 -0.7 30.7
04:40 1013 29.91 842 24.86 3.2 37.7 75 -0.8 30.6
04:45 1013 29.91 842 24.86 3.2 37.7 75 -0.8 30.5
04:50 1013 29.91 842 24.86 3.2 37.7 75 -0.9 30.4
04:55 1013 29.91 842 24.86 3.2 37.7 74 -1 30.2
05:00 1012 29.88 842 24.86 3.2 37.8 74 -1 30.2
05:05 1012 29.88 842 24.86 3.2 37.8 74 -1 30.2
05:10 1012 29.88 841 24.83 3.3 37.9 72 -1.4 29.6
05:15 1012 29.88 841 24.83 3.4 38.1 72 -1.1 30
05:20 1012 29.88 841 24.83 3.3 37.9 73 -1.1 30
05:25 1012 29.88 841 24.83 3.3 37.9 69 -1.9 28.6
05:30 1012 29.88 841 24.83 3.7 38.7 70 -1.2 29.8
05:35 1012 29.88 841 24.83 3.7 38.6 71 -1.1 29.9
05:40 1012 29.88 841 24.83 3.6 38.6 72 -0.9 30.4
05:45 1012 29.88 841 24.83 3.4 38.2 71 -1.3 29.7
05:50 1011 29.85 841 24.83 3.6 38.4 72 -0.9 30.3
05:55 1011 29.85 841 24.83 3.3 38 74 -0.8 30.5
06:00 1011 29.85 841 24.83 3.2 37.8 75 -0.7 30.7
06:05 1011 29.85 841 24.83 3.3 37.9 74 -0.9 30.4
06:10 1011 29.85 840 24.81 3.3 37.9 74 -0.9 30.4
06:15 1011 29.85 841 24.83 3.2 37.7 74 -1.1 30.1
06:20 1011 29.85 841 24.83 3.2 37.8 73 -1.1 29.9
06:25 1011 29.85 841 24.83 3.3 38 73 -1 30.2
06:30 1011 29.85 841 24.83 3.2 37.8 74 -1 30.1
06:35 1011 29.85 841 24.83 3.2 37.8 72 -1.3 29.6
06:40 1011 29.85 841 24.83 3.3 38 74 -0.9 30.3
06:45 1011 29.85 840 24.81 3.2 37.7 74 -1 30.2
06:50 1011 29.85 840 24.81 3 37.4 79 -0.3 31.4
06:55 1011 29.85 840 24.81 2.8 37.1 78 -0.7 30.7
07:00 1011 29.85 840 24.81 2.8 37 79 -0.5 31.1
07:05 1011 29.85 840 24.81 2.9 37.2 74 -1.4 29.5
07:10 1011 29.85 840 24.81 3.3 37.9 78 -0.2 31.6
07:15 1011 29.85 840 24.81 2.8 37 77 -0.9 30.4
07:20 1011 29.85 840 24.81 2.7 36.9 81 -0.3 31.5
07:25 1011 29.85 840 24.81 2.6 36.6 81 -0.3 31.5
07:30 1011 29.85 840 24.81 2.3 36.1 83 -0.4 31.3
07:35 1011 29.85 840 24.81 2.3 36.2 82 -0.4 31.3
07:40 1011 29.85 840 24.81 2.4 36.3 81 -0.5 31.1
07:45 1011 29.85 840 24.81 2.4 36.4 81 -0.5 31.1
07:50 1011 29.85 840 24.81 2.5 36.5 81 -0.4 31.3
07:55 1011 29.85 840 24.81 2.4 36.4 82 -0.3 31.5
08:00 1011 29.85 840 24.81 2.4 36.4 82 -0.3 31.4
08:05 1011 29.85 840 24.81 2.5 36.5 82 -0.2 31.6
08:10 1011 29.85 840 24.81 2.4 36.4 85 0.1 32.2
08:15 1011 29.85 840 24.81 2.1 35.8 87 0.2 32.3
08:20 1011 29.85 840 24.81 2 35.6 87 0.1 32.1
08:25 1011 29.85 840 24.81 2.1 35.7 87 0.1 32.2
08:30 1011 29.85 840 24.81 2.1 35.7 88 0.2 32.4
08:35 1011 29.85 840 24.81 2 35.6 88 0.3 32.6
08:40 1011 29.85 840 24.81 2.1 35.7 89 0.4 32.6
08:45 1011 29.85 840 24.81 2.2 35.9 87 0.3 32.5
08:50 1010 29.83 840 24.81 2.5 36.4 86 0.4 32.7
08:55 1010 29.83 839 24.78 2.6 36.7 86 0.6 33
09:00 1010 29.83 839 24.78 2.5 36.6 87 0.6 33.1
09:05 1010 29.83 839 24.78 2.4 36.4 88 0.7 33.2
09:10 1010 29.83 839 24.78 2.5 36.6 88 0.7 33.3
09:15 1010 29.83 839 24.78 2.7 36.8 86 0.5 32.9
09:20 1010 29.83 839 24.78 3.1 37.5 86 0.9 33.7
09:25 1010 29.83 839 24.78 3.1 37.6 83 0.5 32.9
09:30 1009 29.8 839 24.78 3.2 37.8 82 0.5 32.9
09:35 1009 29.8 839 24.78 3.4 38.1 82 0.6 33.1
09:40 1010 29.83 839 24.78 3.6 38.5 79 0.3 32.5
09:45 1010 29.83 839 24.78 3.8 38.8 80 0.7 33.3
09:50 1009 29.8 839 24.78 3.8 38.8 79 0.5 32.9
09:55 1009 29.8 839 24.78 3.9 39 80 0.7 33.3
10:00 1009 29.8 838 24.75 4 39.2 80 0.9 33.6
10:05 1009 29.8 838 24.75 4 39.3 79 0.7 33.3
10:10 1009 29.8 838 24.75 4.2 39.6 75 0.2 32.3
10:15 1009 29.8 838 24.75 4.7 40.4 77 1 33.9
10:20 1009 29.8 838 24.75 4.7 40.4 75 0.7 33.2
10:25 1009 29.8 838 24.75 4.5 40.1 77 0.9 33.7
10:30 1008 29.77 838 24.75 4.7 40.5 75 0.7 33.3
10:35 1008 29.77 838 24.75 4.9 40.9 78 1.4 34.5
10:40 1008 29.77 838 24.75 4.8 40.6 77 1.2 34.1
10:45 1008 29.77 838 24.75 4.9 40.8 75 0.9 33.6
10:50 1008 29.77 837 24.72 5.3 41.5 70 0.4 32.6
10:55 1008 29.77 837 24.72 5.9 42.6 67 0.3 32.5
11:00 1008 29.77 837 24.72 6.1 42.9 69 0.8 33.4
11:05 1008 29.77 837 24.72 5.9 42.5 69 0.6 33.1
11:10 1008 29.77 837 24.72 5.9 42.7 65 -0.2 31.6
11:15 1008 29.77 837 24.72 6.4 43.5 65 0.3 32.6
11:20 1008 29.77 837 24.72 6.5 43.7 64 0.2 32.3
11:25 1008 29.77 837 24.72 6.6 43.9 65 0.5 32.9
11:30 1008 29.77 837 24.72 6.5 43.7 66 0.6 33.1
11:35 1008 29.77 837 24.72 6.5 43.7 67 0.9 33.6
11:40 1008 29.77 837 24.72 6.2 43.2 70 1.2 34.1
11:45 1008 29.77 837 24.72 6.2 43.1 68 0.8 33.4
11:50 1008 29.77 837 24.72 6.4 43.5 64 0.2 32.4
11:55 1008 29.77 837 24.72 6.6 43.9 66 0.8 33.4
12:00 1008 29.77 837 24.72 6.6 43.9 66 0.8 33.4
12:05 1008 29.77 837 24.72 6.7 44 67 0.9 33.7
12:10 1008 29.77 837 24.72 6.7 44 66 0.9 33.6
12:15 1008 29.77 837 24.72 6.7 44.1 69 1.4 34.5
12:20 1008 29.77 837 24.72 6.6 43.9 71 1.7 35.1
12:25 1008 29.77 837 24.72 6.4 43.4 70 1.3 34.3
12:30 1007 29.74 837 24.72 6.3 43.4 70 1.2 34.2
12:35 1007 29.74 837 24.72 6.3 43.4 69 1 33.9
12:40 1007 29.74 837 24.72 6.4 43.5 69 1 33.8
12:45 1007 29.74 836 24.69 6.4 43.6 65 0.3 32.6
12:50 1007 29.74 836 24.69 6.8 44.3 59 -0.6 30.9
12:55 1007 29.74 836 24.69 7.3 45.1 58 -0.4 31.3
13:00 1007 29.74 836 24.69 7.5 45.4 56 -0.6 30.9
13:05 1007 29.74 836 24.69 7.6 45.7 56 -0.5 31
13:10 1007 29.74 836 24.69 7.8 46 56 -0.5 31.1
13:15 1007 29.74 836 24.69 7.8 46 56 -0.5 31.2
13:20 1007 29.74 836 24.69 7.8 46.1 56 -0.4 31.3
13:25 1007 29.74 836 24.69 7.9 46.2 56 -0.3 31.4
13:30 1007 29.74 836 24.69 7.9 46.3 52 -1.2 29.8
13:35 1007 29.74 836 24.69 8 46.3 58 0.2 32.3
13:40 1007 29.74 836 24.69 7.6 45.7 57 -0.2 31.6
13:45 1007 29.74 836 24.69 7.4 45.3 62 0.6 33
13:50 1007 29.74 836 24.69 7 44.6 64 0.7 33.2
13:55 1007 29.74 836 24.69 6.5 43.8 65 0.4 32.7
14:00 1007 29.74 836 24.69 6.6 43.8 66 0.7 33.2
14:05 1007 29.74 836 24.69 6.6 43.9 66 0.7 33.3
14:10 1007 29.74 836 24.69 6.6 43.9 66 0.8 33.4
14:15 1007 29.74 836 24.69 6.6 43.9 69 1.3 34.4
14:20 1007 29.74 836 24.69 6.5 43.6 68 1 33.8
14:25 1007 29.74 836 24.69 6.3 43.4 69 1.2 34.1
14:30 1007 29.74 836 24.69 6.2 43.1 71 1.4 34.6
14:35 1007 29.74 836 24.69 6.1 43 69 1 33.8
14:40 1007 29.74 836 24.69 6.4 43.4 67 0.7 33.2
14:45 1007 29.74 836 24.69 6.6 43.8 65 0.5 32.9
14:50 1007 29.74 836 24.69 6.7 44 64 0.4 32.7
14:55 1007 29.74 836 24.69 6.8 44.2 65 0.6 33
15:00 1007 29.74 836 24.69 6.8 44.2 65 0.6 33.2
15:05 1007 29.74 836 24.69 6.8 44.3 65 0.6 33.1
15:10 1007 29.74 836 24.69 6.9 44.4 64 0.6 33.1
15:15 1007 29.74 836 24.69 6.9 44.5 64 0.6 33.1
15:20 1007 29.74 836 24.69 7 44.6 64 0.7 33.3
14:25 1007 29.74 836 24.69 7.1 44.8 62 0.3 32.5
14:30 1007 29.74 836 24.69 7.3 45.1 62 0.5 32.8
14:35 1006 29.71 836 24.69 7.4 45.3 60 0.3 32.5
14:40 1006 29.71 835 24.66 7.5 45.6 60 0.4 32.7
14:45 1006 29.71 835 24.66 7.7 45.8 59 0.1 32.2
14:50 1006 29.71 836 24.69 7.9 46.2 59 0.4 32.6
14:55 1006 29.71 836 24.69 7.9 46.2 58 0.1 32.2
15:00 1007 29.74 836 24.69 8 46.4 56 -0.2 31.6
15:05 1007 29.74 836 24.69 8.5 47.2 53 -0.6 31
15:10 1007 29.74 836 24.69 8.8 47.8 54 -0.1 31.9
15:15 1007 29.74 836 24.69 8.6 47.5 53 -0.3 31.4
15:20 1007 29.74 836 24.69 8.4 47.1 54 -0.3 31.5
15:25 1007 29.74 836 24.69 8.2 46.8 55 -0.3 31.4
15:30 1007 29.74 836 24.69 8.1 46.6 55 -0.3 31.5
15:35 1007 29.74 836 24.69 8.1 46.5 55 -0.5 31.1
15:40 1007 29.74 836 24.69 8.1 46.6 55 -0.5 31.2
15:45 1007 29.74 836 24.69 8.1 46.6 51 -1.5 29.4
15:50 1007 29.74 836 24.69 8.2 46.7 50 -1.6 29.1
15:55 1007 29.74 836 24.69 8.2 46.7 52 -1.1 30.1
16:00 1007 29.74 836 24.69 8.1 46.5 53 -0.8 30.5
16:05 1007 29.74 836 24.69 7.9 46.2 53 -1 30.3
16:10 1007 29.74 836 24.69 7.9 46.2 47 -2.6 27.3
16:15 1007 29.74 836 24.69 8.1 46.5 45 -3.3 26.1
16:20 1007 29.74 836 24.69 8.1 46.6 42 -4.1 24.5
16:25 1007 29.74 836 24.69 8 46.4 39 -5 23
16:30 1007 29.74 836 24.69 8 46.4 41 -4.4 24.1
16:35 1007 29.74 836 24.69 7.9 46.1 44 -3.8 25.2
16:40 1007 29.74 836 24.69 7.8 46 42 -4.3 24.3
16:45 1007 29.74 836 24.69 7.8 46 44 -3.6 25.5
16:50 1007 29.74 836 24.69 7.8 46 42 -4.2 24.4
16:55 1007 29.74 836 24.69 7.8 46.1 41 -4.6 23.8
17:00 1007 29.74 836 24.69 7.8 46 43 -3.9 25
17:05 1007 29.74 837 24.72 7.4 45.4 45 -3.6 25.4
17:10 1007 29.74 837 24.72 7.3 45.1 45 -4 24.9
17:15 1008 29.77 837 24.72 7.2 44.9 43 -4.6 23.7
17:20 1008 29.77 837 24.72 7.3 45.1 43 -4.5 23.8
17:25 1008 29.77 837 24.72 7.3 45.2 43 -4.4 24.1
17:30 1008 29.77 837 24.72 7.3 45.1 44 -4.1 24.6
17:35 1008 29.77 837 24.72 7.2 45 45 -4 24.7
17:40 1008 29.77 837 24.72 7.1 44.8 45 -4.1 24.7
17:45 1008 29.77 837 24.72 7.1 44.8 45 -4.1 24.6
17:50 1008 29.77 837 24.72 7.1 44.8 44 -4.2 24.5
17:55 1008 29.77 837 24.72 7.1 44.7 44 -4.4 24.1
18:00 1008 29.77 837 24.72 6.9 44.4 43 -4.7 23.5
18:05 1008 29.77 837 24.72 6.8 44.2 43 -5 23
18:10 1008 29.77 837 24.72 6.8 44.2 43 -5.1 22.9
18:15 1008 29.77 837 24.72 6.7 44 43 -5 23.1
18:20 1008 29.77 837 24.72 6.6 43.9 44 -4.9 23.1
18:25 1008 29.77 837 24.72 6.6 43.9 45 -4.6 23.7
18:30 1008 29.77 838 24.75 6.6 43.8 44 -4.9 23.1
18:35 1009 29.8 838 24.75 6.8 44.2 42 -5.3 22.5
18:40 1009 29.8 838 24.75 6.9 44.4 41 -5.3 22.5
18:45 1009 29.8 838 24.75 7 44.6 42 -5.1 22.8
18:50 1009 29.8 838 24.75 7 44.7 42 -5.1 22.9
18:55 1009 29.8 838 24.75 7.1 44.7 42 -5.1 22.8
19:00 1009 29.8 838 24.75 7.2 44.9 43 -4.7 23.5
19:05 1009 29.8 838 24.75 7.2 44.9 43 -4.5 23.9
19:10 1009 29.8 838 24.75 7.1 44.7 44 -4.4 24
19:15 1009 29.8 838 24.75 6.9 44.4 44 -4.5 23.9
19:20 1009 29.8 838 24.75 6.9 44.4 43 -4.7 23.6
19:25 1009 29.8 838 24.75 6.9 44.4 44 -4.6 23.8
19:30 1009 29.8 838 24.75 6.9 44.3 44 -4.7 23.6
19:35 1009 29.8 838 24.75 6.8 44.3 44 -4.7 23.5
19:40 1009 29.8 838 24.75 6.8 44.2 44 -4.5 24
19:45 1009 29.8 838 24.75 6.7 44.1 45 -4.3 24.2
19:50 1009 29.8 838 24.75 6.7 44 45 -4.4 24.1
19:55 1009 29.8 839 24.78 6.6 43.9 46 -4.1 24.6
20:00 1010 29.83 839 24.78 6.5 43.7 47 -4.1 24.6
20:05 1009 29.8 839 24.78 6.4 43.5 47 -4.2 24.4
20:10 1009 29.8 839 24.78 6.4 43.5 46 -4.4 24.1
20:15 1009 29.8 839 24.78 6.5 43.6 45 -4.6 23.7
20:20 1010 29.83 839 24.78 6.5 43.7 46 -4.4 24
20:25 1010 29.83 839 24.78 6.4 43.6 46 -4.4 24.1
20:30 1010 29.83 839 24.78 6.4 43.5 45 -4.7 23.6
20:35 1010 29.83 839 24.78 6.5 43.7 46 -4.4 24
20:40 1010 29.83 839 24.78 6.5 43.8 46 -4.4 24.1
20:45 1010 29.83 839 24.78 6.5 43.7 45 -4.5 24
20:50 1010 29.83 839 24.78 6.5 43.7 45 -4.5 23.9
20:55 1010 29.83 839 24.78 6.5 43.6 46 -4.4 24.1
21:00 1010 29.83 839 24.78 6.4 43.5 46 -4.3 24.3
21:05 1010 29.83 839 24.78 6.3 43.4 47 -4.3 24.3
21:10 1010 29.83 839 24.78 6.3 43.4 47 -4.2 24.4
21:15 1010 29.83 839 24.78 6.3 43.3 46 -4.4 24.1
21:20 1010 29.83 839 24.78 6.3 43.3 46 -4.4 24
21:25 1010 29.83 839 24.78 6.4 43.4 45 -4.6 23.7
21:30 1010 29.83 839 24.78 6.4 43.5 45 -4.5 23.8
21:35 1010 29.83 839 24.78 6.4 43.5 46 -4.3 24.3
21:40 1010 29.83 839 24.78 6.2 43.2 47 -4.3 24.2
21:45 1010 29.83 840 24.81 6 42.8 48 -4.3 24.3
21:50 1010 29.83 840 24.81 5.9 42.5 48 -4.2 24.4
21:55 1010 29.83 840 24.81 5.8 42.4 49 -4 24.7
22:00 1010 29.83 840 24.81 5.7 42.2 50 -4 24.7
22:05 1010 29.83 840 24.81 5.7 42.2 48 -4.6 23.8
22:10 1011 29.85 840 24.81 5.8 42.5 48 -4.4 24.1
22:15 1011 29.85 840 24.81 5.8 42.5 46 -4.8 23.4
22:20 1011 29.85 840 24.81 5.9 42.6 46 -4.7 23.5
22:25 1011 29.85 840 24.81 6 42.7 45 -4.9 23.1
22:30 1011 29.85 840 24.81 6 42.8 46 -4.9 23.3
22:35 1011 29.85 840 24.81 6 42.7 46 -4.8 23.3
22:40 1011 29.85 840 24.81 5.9 42.7 45 -5.2 22.7
22:45 1011 29.85 840 24.81 6 42.8 45 -5 22.9
22:50 1011 29.85 840 24.81 6 42.9 45 -5 22.9
22:55 1011 29.85 840 24.81 6 42.8 46 -4.9 23.2
23:00 1011 29.85 840 24.81 5.9 42.6 47 -4.7 23.6
23:05 1011 29.85 840 24.81 5.8 42.4 48 -4.5 23.9
23:10 1011 29.85 840 24.81 5.6 42.1 48 -4.6 23.7
23:15 1011 29.85 840 24.81 5.5 41.8 49 -4.4 24
23:20 1011 29.85 840 24.81 5.3 41.6 49 -4.4 24.1
23:25 1011 29.85 840 24.81 5.2 41.4 50 -4.3 24.2
23:30 1011 29.85 840 24.81 5.1 41.2 49 -4.6 23.6
23:35 1011 29.85 840 24.81 5.1 41.2 49 -4.6 23.7
23:40 1011 29.85 840 24.81 5.1 41.3 49 -4.7 23.5
23:45 1011 29.85 840 24.81 5.1 41.3 50 -4.4 24
23:50 1011 29.85 840 24.81 5.1 41.1 51 -4.2 24.5
23:55 1011 29.85 840 24.81 5 41 51 -4.2 24.4
24:00 1011 29.85 840 24.81 4.9 40.9 51 -4.5 24